createdAt,value
2018-02-14T00:00:20.848Z,9.30
2018-02-14T00:02:48.304Z,8.80
2018-02-14T00:05:16.136Z,8.63
2018-02-14T00:07:44.356Z,8.03
2018-02-14T00:10:11.818Z,7.93
2018-02-14T00:12:39.268Z,8.67
2018-02-14T00:15:06.723Z,8.23
2018-02-14T00:17:34.163Z,8.23
2018-02-14T00:20:02.388Z,8.00
2018-02-14T00:22:29.845Z,8.97
2018-02-14T00:24:57.297Z,8.60
2018-02-14T00:27:24.753Z,8.03
2018-02-14T00:29:52.209Z,9.10
2018-02-14T00:32:19.665Z,8.90
2018-02-14T00:34:47.144Z,8.57
2018-02-14T00:37:14.601Z,8.57
2018-02-14T00:39:42.057Z,8.93
2018-02-14T00:42:09.512Z,8.50
2018-02-14T00:44:36.972Z,8.70
2018-02-14T00:47:05.223Z,8.73
2018-02-14T00:49:32.660Z,8.23
2018-02-14T00:52:00.129Z,8.53
2018-02-14T00:54:27.629Z,8.57
2018-02-14T00:56:55.058Z,8.93
2018-02-14T00:59:22.516Z,9.00
2018-02-14T01:01:49.983Z,10.17
2018-02-14T01:04:17.437Z,9.13
2018-02-14T01:06:45.659Z,8.07
2018-02-14T01:09:13.881Z,8.53
2018-02-14T01:11:41.344Z,8.40
2018-02-14T01:14:08.799Z,9.00
2018-02-14T01:16:36.264Z,8.27
2018-02-14T01:19:09.359Z,8.93
2018-02-14T01:21:36.893Z,9.63
2018-02-14T01:24:04.354Z,10.53
2018-02-14T01:26:32.584Z,13.80
2018-02-14T01:29:00.044Z,10.00
2018-02-14T01:31:27.497Z,8.77
2018-02-14T01:33:54.957Z,8.67
2018-02-14T01:36:22.413Z,8.90
2018-02-14T01:38:49.868Z,9.90
2018-02-14T01:41:17.336Z,8.67
2018-02-14T01:43:44.799Z,9.00
2018-02-14T01:46:12.272Z,11.47
2018-02-14T01:48:39.724Z,16.43
2018-02-14T01:51:07.179Z,14.57
2018-02-14T01:53:34.655Z,14.77
2018-02-14T01:56:02.106Z,17.70
2018-02-14T01:58:29.564Z,20.27
2018-02-14T02:00:57.025Z,19.93
2018-02-14T02:03:24.488Z,20.70
2018-02-14T02:05:51.952Z,18.67
2018-02-14T02:10:53.120Z,17.20
2018-02-14T02:13:20.570Z,16.73
2018-02-14T02:15:48.010Z,16.17
2018-02-14T02:18:16.272Z,14.33
2018-02-14T02:20:43.685Z,14.57
2018-02-14T02:23:11.173Z,15.47
2018-02-14T02:25:38.634Z,13.53
2018-02-14T02:28:06.093Z,13.57
2018-02-14T02:30:33.557Z,13.93
2018-02-14T02:33:01.024Z,12.47
2018-02-14T02:35:28.486Z,12.93
2018-02-14T02:37:55.957Z,23.07
2018-02-14T02:40:30.184Z,22.07
2018-02-14T02:42:57.657Z,15.13
2018-02-14T02:45:25.112Z,13.50
2018-02-14T02:47:52.577Z,12.10
2018-02-14T02:50:20.045Z,12.33
2018-02-14T02:52:47.533Z,10.93
2018-02-14T02:55:15.763Z,10.93
2018-02-14T02:57:44.736Z,10.43
2018-02-14T03:00:12.652Z,12.63
2018-02-14T03:02:40.882Z,12.77
2018-02-14T03:05:08.346Z,12.87
2018-02-14T03:07:35.801Z,12.50
2018-02-14T03:10:03.264Z,11.33
2018-02-14T03:12:31.486Z,11.47
2018-02-14T03:14:59.724Z,11.20
2018-02-14T03:17:27.179Z,11.37
2018-02-14T03:19:54.651Z,10.83
2018-02-14T03:22:22.107Z,11.80
2018-02-14T03:24:49.559Z,11.17
2018-02-14T03:27:17.025Z,10.80
2018-02-14T03:29:44.503Z,10.73
2018-02-14T03:32:11.961Z,10.30
2018-02-14T03:34:40.189Z,10.43
2018-02-14T03:37:08.408Z,9.97
2018-02-14T03:39:35.869Z,10.33
2018-02-14T03:42:03.331Z,10.27
2018-02-14T03:44:30.804Z,9.43
2018-02-14T03:46:58.262Z,9.83
2018-02-14T03:49:25.733Z,10.03
2018-02-14T03:51:53.191Z,10.40
2018-02-14T03:54:20.660Z,9.83
2018-02-14T03:56:48.121Z,9.97
2018-02-14T03:59:15.602Z,10.00
2018-02-14T04:01:43.053Z,10.00
2018-02-14T04:04:10.512Z,9.67
2018-02-14T04:06:37.972Z,10.43
2018-02-14T04:09:05.423Z,10.33
2018-02-14T04:11:32.893Z,10.23
2018-02-14T04:14:00.352Z,10.17
2018-02-14T04:16:27.820Z,11.40
2018-02-14T04:18:55.284Z,10.67
2018-02-14T04:21:22.748Z,12.17
2018-02-14T04:23:50.222Z,12.87
2018-02-14T04:26:17.697Z,11.97
2018-02-14T04:28:45.146Z,11.60
2018-02-14T04:31:13.372Z,12.47
2018-02-14T04:33:40.838Z,11.70
2018-02-14T04:36:08.317Z,11.27
2018-02-14T04:38:35.776Z,10.60
2018-02-14T04:41:03.236Z,10.07
2018-02-14T04:43:30.689Z,10.07
2018-02-14T04:45:58.148Z,10.30
2018-02-14T04:48:25.613Z,10.33
2018-02-14T04:50:53.077Z,10.27
2018-02-14T04:53:20.524Z,11.17
2018-02-14T04:55:48.770Z,10.80
2018-02-14T04:58:16.234Z,10.63
2018-02-14T05:00:44.457Z,11.53
2018-02-14T05:03:11.936Z,10.80
2018-02-14T05:05:40.138Z,12.13
2018-02-14T05:08:07.607Z,10.93
2018-02-14T05:10:35.076Z,12.50
2018-02-14T05:13:02.552Z,12.10
2018-02-14T05:15:30.000Z,11.20
2018-02-14T05:17:57.478Z,11.27
2018-02-14T05:20:24.937Z,11.13
2018-02-14T05:22:52.397Z,12.43
2018-02-14T05:25:19.853Z,10.93
2018-02-14T05:27:47.312Z,12.37
2018-02-14T05:30:14.776Z,12.77
2018-02-14T05:32:42.246Z,14.77
2018-02-14T05:35:09.696Z,14.70
2018-02-14T05:37:37.182Z,15.90
2018-02-14T05:40:04.628Z,16.40
2018-02-14T05:42:32.100Z,15.10
2018-02-14T05:44:59.548Z,14.13
2018-02-14T05:47:27.020Z,14.07
2018-02-14T05:49:54.474Z,17.83
2018-02-14T05:52:21.950Z,16.50
2018-02-14T05:54:49.405Z,15.70
2018-02-14T05:57:16.870Z,15.30
2018-02-14T05:59:44.333Z,14.70
2018-02-14T06:02:11.798Z,15.17
2018-02-14T06:04:39.261Z,16.07
2018-02-14T06:07:06.713Z,16.47
2018-02-14T06:09:34.190Z,16.20
2018-02-14T06:12:01.672Z,14.77
2018-02-14T06:14:29.890Z,16.03
2018-02-14T06:16:57.352Z,14.83
2018-02-14T06:19:24.831Z,17.13
2018-02-14T06:21:52.292Z,15.93
2018-02-14T06:24:19.754Z,17.00
2018-02-14T06:26:47.216Z,16.57
2018-02-14T06:29:15.441Z,16.30
2018-02-14T06:31:43.668Z,17.27
2018-02-14T06:34:11.126Z,17.93
2018-02-14T06:36:38.584Z,16.97
2018-02-14T06:39:06.069Z,16.60
2018-02-14T06:41:33.529Z,15.57
2018-02-14T06:44:01.014Z,16.23
2018-02-14T06:46:28.489Z,17.40
2018-02-14T06:48:56.707Z,18.60
2018-02-14T06:51:24.170Z,18.50
2018-02-14T06:53:51.637Z,17.50
2018-02-14T06:56:19.107Z,17.17
2018-02-14T06:58:46.584Z,17.63
2018-02-14T07:01:14.032Z,16.97
2018-02-14T07:03:41.497Z,18.37
2018-02-14T07:06:08.965Z,17.63
2018-02-14T07:08:36.425Z,17.00
2018-02-14T07:11:03.892Z,17.40
2018-02-14T07:13:31.349Z,17.97
2018-02-14T07:15:58.805Z,17.73
2018-02-14T07:18:26.282Z,20.47
2018-02-14T07:20:53.747Z,20.47
2018-02-14T07:23:26.914Z,20.30
2018-02-14T07:25:54.376Z,20.10
2018-02-14T07:28:21.835Z,18.77
2018-02-14T07:30:49.297Z,15.50
2018-02-14T07:33:16.773Z,15.63
2018-02-14T07:35:44.244Z,15.40
2018-02-14T07:38:11.705Z,14.10
2018-02-14T07:40:39.169Z,13.37
2018-02-14T07:43:06.629Z,12.97
2018-02-14T07:45:34.094Z,13.53
2018-02-14T07:48:01.545Z,13.97
2018-02-14T07:50:29.007Z,12.30
2018-02-14T07:52:56.469Z,13.13
2018-02-14T07:55:23.941Z,12.17
2018-02-14T07:57:51.405Z,12.87
2018-02-14T08:00:18.887Z,14.07
2018-02-14T08:02:47.118Z,15.00
2018-02-14T08:05:14.585Z,13.23
2018-02-14T08:07:42.073Z,10.90
2018-02-14T08:10:09.535Z,11.27
2018-02-14T08:12:37.000Z,12.10
2018-02-14T08:15:04.474Z,11.23
2018-02-14T08:17:31.935Z,11.50
2018-02-14T08:19:59.388Z,11.60
2018-02-14T08:22:26.856Z,12.37
2018-02-14T08:24:54.322Z,11.57
2018-02-14T08:27:22.545Z,10.33
2018-02-14T08:29:50.778Z,11.90
2018-02-14T08:32:18.259Z,11.13
2018-02-14T08:34:45.708Z,11.10
2018-02-14T08:37:13.171Z,11.90
2018-02-14T08:39:40.624Z,13.00
2018-02-14T08:42:08.096Z,11.57
2018-02-14T08:44:35.565Z,11.40
2018-02-14T08:47:03.026Z,11.63
2018-02-14T08:49:30.487Z,10.03
2018-02-14T08:51:57.956Z,10.63
2018-02-14T08:54:25.408Z,10.50
2018-02-14T08:56:52.881Z,10.23
2018-02-14T08:59:20.344Z,11.33
2018-02-14T09:01:47.805Z,11.00
2018-02-14T09:04:15.262Z,10.03
2018-02-14T09:06:42.779Z,10.70
2018-02-14T09:09:10.225Z,10.83
2018-02-14T09:11:38.456Z,10.37
2018-02-14T09:14:05.908Z,10.47
2018-02-14T09:16:33.374Z,10.87
2018-02-14T09:19:01.606Z,11.23
2018-02-14T09:21:29.833Z,10.73
2018-02-14T09:23:57.292Z,10.73
2018-02-14T09:26:24.836Z,10.23
2018-02-14T09:28:52.399Z,10.40
2018-02-14T09:31:19.909Z,10.73
2018-02-14T09:33:47.297Z,10.77
2018-02-14T09:36:15.538Z,10.63
2018-02-14T09:38:42.993Z,10.70
2018-02-14T09:41:10.456Z,10.17
2018-02-14T09:43:37.912Z,9.87
2018-02-14T09:46:05.388Z,10.20
2018-02-14T09:48:32.847Z,10.00
2018-02-14T09:51:00.316Z,10.23
2018-02-14T09:53:27.781Z,10.57
2018-02-14T09:55:55.252Z,9.77
2018-02-14T09:58:22.708Z,10.30
2018-02-14T10:00:50.157Z,9.63
2018-02-14T10:03:17.616Z,9.17
2018-02-14T10:05:45.076Z,9.77
2018-02-14T10:08:12.528Z,9.47
2018-02-14T10:10:39.980Z,8.87
2018-02-14T10:13:07.444Z,9.00
2018-02-14T10:15:34.903Z,9.30
2018-02-14T10:18:02.407Z,9.23
2018-02-14T10:20:29.811Z,8.97
2018-02-14T10:22:58.033Z,9.07
2018-02-14T10:25:25.484Z,7.77
2018-02-14T10:27:52.952Z,8.20
2018-02-14T10:30:20.401Z,9.17
2018-02-14T10:32:47.860Z,8.97
2018-02-14T10:35:15.317Z,8.63
2018-02-14T10:37:42.776Z,9.23
2018-02-14T10:40:10.226Z,9.23
2018-02-14T10:42:38.446Z,9.07
2018-02-14T10:45:05.885Z,8.50
2018-02-14T10:47:33.348Z,8.90
2018-02-14T10:50:00.811Z,9.60
2018-02-14T10:52:28.249Z,8.87
2018-02-14T10:54:56.462Z,8.80
2018-02-14T10:57:23.924Z,10.10
2018-02-14T10:59:51.374Z,10.93
2018-02-14T11:02:18.852Z,9.37
2018-02-14T11:04:52.028Z,10.23
2018-02-14T11:07:19.486Z,8.87
2018-02-14T11:09:46.935Z,10.60
2018-02-14T11:12:15.165Z,12.63
2018-02-14T11:14:42.633Z,10.20
2018-02-14T11:17:10.092Z,10.47
2018-02-14T11:19:37.575Z,9.63
2018-02-14T11:22:05.016Z,7.80
2018-02-14T11:24:32.468Z,8.73
2018-02-14T11:26:59.920Z,9.37
2018-02-14T11:29:27.372Z,8.10
2018-02-14T11:34:29.580Z,8.43
2018-02-14T11:36:57.024Z,8.13
2018-02-14T11:39:24.511Z,8.20
2018-02-14T11:41:51.957Z,22.23
2018-02-14T11:44:19.421Z,10.80
2018-02-14T11:46:46.877Z,11.23
2018-02-14T11:49:14.337Z,10.30
2018-02-14T11:51:41.816Z,10.33
2018-02-14T11:54:09.279Z,18.87
2018-02-14T11:56:36.728Z,10.40
2018-02-14T11:59:04.188Z,18.00
2018-02-14T12:01:31.645Z,11.07
2018-02-14T12:03:59.110Z,10.83
2018-02-14T12:06:26.569Z,8.40
2018-02-14T12:08:54.031Z,9.90
2018-02-14T12:11:21.584Z,11.83
2018-02-14T12:13:49.040Z,10.93
2018-02-14T12:16:17.262Z,8.60
2018-02-14T12:18:44.725Z,9.37
2018-02-14T12:21:12.165Z,8.73
2018-02-14T12:23:39.630Z,7.13
2018-02-14T12:26:07.076Z,7.47
2018-02-14T12:28:34.527Z,6.97
2018-02-14T12:31:02.760Z,7.77
2018-02-14T12:33:30.212Z,6.90
2018-02-14T12:35:57.675Z,6.40
2018-02-14T12:38:25.112Z,7.00
2018-02-14T12:40:52.572Z,6.93
2018-02-14T12:43:20.015Z,7.90
2018-02-14T12:45:48.240Z,7.07
2018-02-14T12:48:15.690Z,8.23
2018-02-14T12:50:43.170Z,7.70
2018-02-14T12:53:10.617Z,7.53
2018-02-14T12:55:38.078Z,7.30
2018-02-14T12:58:05.531Z,7.53
2018-02-14T13:00:32.992Z,7.37
2018-02-14T13:03:00.433Z,7.20
2018-02-14T13:05:28.661Z,7.10
2018-02-14T13:07:56.109Z,7.20
2018-02-14T13:10:23.569Z,7.60
2018-02-14T13:12:51.026Z,8.27
2018-02-14T13:15:18.492Z,8.23
2018-02-14T13:17:45.947Z,8.70
2018-02-14T13:20:13.407Z,8.70
2018-02-14T13:22:40.847Z,9.00
2018-02-14T13:25:09.073Z,8.70
2018-02-14T13:27:36.522Z,7.90
2018-02-14T13:30:03.972Z,8.57
2018-02-14T13:32:31.426Z,8.47
2018-02-14T13:34:58.883Z,8.90
2018-02-14T13:37:27.113Z,9.00
2018-02-14T13:39:54.584Z,8.50
2018-02-14T13:42:22.033Z,8.73
2018-02-14T13:44:49.493Z,8.27
2018-02-14T13:47:16.956Z,8.70
2018-02-14T13:49:45.176Z,8.80
2018-02-14T13:52:13.395Z,8.53
2018-02-14T13:54:40.841Z,8.60
2018-02-14T13:57:08.309Z,8.70
2018-02-14T13:59:35.771Z,9.80
2018-02-14T14:02:03.228Z,8.87
2018-02-14T14:04:30.699Z,8.50
2018-02-14T14:06:58.132Z,8.53
2018-02-14T14:09:26.344Z,8.93
2018-02-14T14:11:53.804Z,8.30
2018-02-14T14:14:21.249Z,7.93
2018-02-14T14:16:48.699Z,8.00
2018-02-14T14:19:16.913Z,8.53
2018-02-14T14:21:44.370Z,7.93
2018-02-14T14:24:11.818Z,7.93
2018-02-14T14:26:39.282Z,8.00
2018-02-14T14:29:06.727Z,8.60
2018-02-14T14:31:34.944Z,8.43
2018-02-14T14:34:02.420Z,10.27
2018-02-14T14:36:29.873Z,9.00
2018-02-14T14:38:57.325Z,8.93
2018-02-14T14:41:24.788Z,8.70
2018-02-14T14:43:52.241Z,9.40
2018-02-14T14:46:19.695Z,9.37
2018-02-14T14:48:47.914Z,12.60
2018-02-14T14:51:15.389Z,9.60
2018-02-14T14:53:42.838Z,8.77
2018-02-14T14:56:10.284Z,8.20
2018-02-14T14:58:37.788Z,8.13
2018-02-14T15:01:05.202Z,13.27
2018-02-14T15:03:32.661Z,9.03
2018-02-14T15:06:00.109Z,9.97
2018-02-14T15:08:27.559Z,8.97
2018-02-14T15:10:55.781Z,8.63
2018-02-14T15:13:23.253Z,15.23
2018-02-14T15:15:50.708Z,10.67
2018-02-14T15:18:18.170Z,10.73
2018-02-14T15:20:45.624Z,9.47
2018-02-14T15:23:13.900Z,9.73
2018-02-14T15:25:41.459Z,10.30
2018-02-14T15:28:08.924Z,10.40
2018-02-14T15:30:36.386Z,9.27
2018-02-14T15:33:03.850Z,9.57
2018-02-14T15:35:31.296Z,9.27
2018-02-14T15:37:58.760Z,8.37
2018-02-14T15:40:26.220Z,9.43
2018-02-14T15:42:54.441Z,8.37
2018-02-14T15:45:21.894Z,8.63
2018-02-14T15:47:49.394Z,8.03
2018-02-14T15:50:16.848Z,8.77
2018-02-14T15:52:45.069Z,8.13
2018-02-14T15:55:12.518Z,8.27
2018-02-14T15:57:40.754Z,8.10
2018-02-14T16:00:08.200Z,8.37
2018-02-14T16:02:35.696Z,8.20
2018-02-14T16:05:03.149Z,8.90
2018-02-14T16:07:30.600Z,9.20
2018-02-14T16:09:58.056Z,8.37
2018-02-14T16:12:25.521Z,10.30
2018-02-14T16:14:52.989Z,9.30
2018-02-14T16:17:20.443Z,9.17
2018-02-14T16:19:47.905Z,9.87
2018-02-14T16:22:15.360Z,9.60
2018-02-14T16:24:42.827Z,9.03
2018-02-14T16:27:10.302Z,9.90
2018-02-14T16:29:37.770Z,8.90
2018-02-14T16:32:05.221Z,8.90
2018-02-14T16:34:32.680Z,10.07
2018-02-14T16:37:00.914Z,9.37
2018-02-14T16:39:29.141Z,8.17
2018-02-14T16:41:56.614Z,9.73
2018-02-14T16:44:24.080Z,9.13
2018-02-14T16:46:51.573Z,9.50
2018-02-14T16:49:19.012Z,13.40
2018-02-14T16:51:46.469Z,18.60
2018-02-14T16:54:13.939Z,32.00
2018-02-14T16:56:41.395Z,25.53
2018-02-14T16:59:08.868Z,24.60
2018-02-14T17:01:36.324Z,25.67
2018-02-14T17:04:03.793Z,23.23
2018-02-14T17:06:31.253Z,20.50
2018-02-14T17:08:58.709Z,18.27
2018-02-14T17:11:26.172Z,15.57
2018-02-14T17:13:53.636Z,14.77
2018-02-14T17:16:21.094Z,13.93
2018-02-14T17:18:48.565Z,13.67
2018-02-14T17:21:16.028Z,14.23
2018-02-14T17:23:43.486Z,13.83
2018-02-14T17:26:10.953Z,17.73
2018-02-14T17:28:38.391Z,19.07
2018-02-14T17:31:05.860Z,17.90
2018-02-14T17:33:33.320Z,17.00
2018-02-14T17:36:00.781Z,17.47
2018-02-14T17:38:28.238Z,16.80
2018-02-14T17:40:55.704Z,17.83
2018-02-14T17:43:23.169Z,17.63
2018-02-14T17:45:50.641Z,16.60
2018-02-14T17:48:18.096Z,15.73
2018-02-14T17:50:45.556Z,14.67
2018-02-14T17:53:13.033Z,15.93
2018-02-14T17:55:40.505Z,15.90
2018-02-14T17:58:07.969Z,13.63
2018-02-14T18:00:35.424Z,16.37
2018-02-14T18:03:03.661Z,15.53
2018-02-14T18:05:31.121Z,13.80
2018-02-14T18:07:58.590Z,12.07
2018-02-14T18:10:26.068Z,11.23
2018-02-14T18:12:53.519Z,11.40
2018-02-14T18:15:20.991Z,12.30
2018-02-14T18:17:48.457Z,13.20
2018-02-14T18:20:15.922Z,13.33
2018-02-14T18:22:43.379Z,15.97
2018-02-14T18:25:10.839Z,19.60
2018-02-14T18:27:38.304Z,21.03
2018-02-14T18:30:05.770Z,21.80
2018-02-14T18:32:33.232Z,21.10
2018-02-14T18:35:00.680Z,20.37
2018-02-14T18:37:28.136Z,18.80
2018-02-14T18:39:55.593Z,19.93
2018-02-14T18:42:23.056Z,20.00
2018-02-14T18:44:51.314Z,17.50
2018-02-14T18:47:18.806Z,18.00
2018-02-14T18:49:46.254Z,18.50
2018-02-14T18:52:13.735Z,18.03
2018-02-14T18:54:41.189Z,18.17
2018-02-14T18:57:08.654Z,17.13
2018-02-14T18:59:36.118Z,17.70
2018-02-14T19:02:03.586Z,17.87
2018-02-14T19:04:31.049Z,18.73
2018-02-14T19:06:58.508Z,30.37
2018-02-14T19:09:26.064Z,21.73
2018-02-14T19:11:53.528Z,20.67
2018-02-14T19:14:20.988Z,20.27
2018-02-14T19:16:48.449Z,19.47
2018-02-14T19:19:15.912Z,19.80
2018-02-14T19:21:43.364Z,21.90
2018-02-14T19:24:10.825Z,21.20
2018-02-14T19:26:38.277Z,21.27
2018-02-14T19:29:06.504Z,21.90
2018-02-14T19:31:33.953Z,20.17
2018-02-14T19:34:01.417Z,22.13
2018-02-14T19:36:28.871Z,21.83
2018-02-14T19:38:56.371Z,21.77
2018-02-14T19:41:23.823Z,21.67
2018-02-14T19:43:52.048Z,20.17
2018-02-14T19:46:20.260Z,18.83
2018-02-14T19:48:47.724Z,17.07
2018-02-14T19:51:15.176Z,17.27
2018-02-14T19:53:42.637Z,18.37
2018-02-14T19:56:10.096Z,18.53
2018-02-14T19:58:37.555Z,18.10
2018-02-14T20:01:05.009Z,16.43
2018-02-14T20:03:33.228Z,18.37
2018-02-14T20:06:00.677Z,19.77
2018-02-14T20:08:28.136Z,17.97
2018-02-14T20:10:55.592Z,19.77
2018-02-14T20:13:23.050Z,18.73
2018-02-14T20:15:50.490Z,18.83
2018-02-14T20:18:18.716Z,19.13
2018-02-14T20:20:46.168Z,18.77
2018-02-14T20:23:13.620Z,18.67
2018-02-14T20:25:41.072Z,18.67
2018-02-14T20:28:08.520Z,19.77
2018-02-14T20:30:36.745Z,19.97
2018-02-14T20:33:04.188Z,19.13
2018-02-14T20:35:31.648Z,24.33
2018-02-14T20:37:59.096Z,23.00
2018-02-14T20:40:26.546Z,22.57
2018-02-14T20:42:54.768Z,22.37
2018-02-14T20:45:22.229Z,20.80
2018-02-14T20:47:49.688Z,20.00
2018-02-14T20:50:17.152Z,20.73
2018-02-14T20:52:44.600Z,19.70
2018-02-14T20:55:12.066Z,19.23
2018-02-14T20:57:39.521Z,20.13
2018-02-14T21:00:06.990Z,20.90
2018-02-14T21:02:34.437Z,21.20
2018-02-14T21:05:01.897Z,19.97
2018-02-14T21:07:29.341Z,20.03
2018-02-14T21:09:57.569Z,18.00
2018-02-14T21:12:25.013Z,20.20
2018-02-14T21:14:52.477Z,19.17
2018-02-14T21:17:19.935Z,19.20
2018-02-14T21:19:47.405Z,18.33
2018-02-14T21:22:14.858Z,18.73
2018-02-14T21:24:42.313Z,17.97
2018-02-14T21:27:09.769Z,18.17
2018-02-14T21:29:37.981Z,18.80
2018-02-14T21:32:05.434Z,17.80
2018-02-14T21:34:32.914Z,19.50
2018-02-14T21:37:00.352Z,19.10
2018-02-14T21:39:27.810Z,19.13
2018-02-14T21:41:55.264Z,19.83
2018-02-14T21:44:23.481Z,20.73
2018-02-14T21:46:50.950Z,21.67
2018-02-14T21:49:19.159Z,21.57
2018-02-14T21:51:46.624Z,23.50
2018-02-14T21:54:14.095Z,21.40
2018-02-14T21:56:42.328Z,21.67
2018-02-14T21:59:09.768Z,19.47
2018-02-14T22:01:37.233Z,18.60
2018-02-14T22:04:04.692Z,18.60
2018-02-14T22:06:32.154Z,19.07
2018-02-14T22:08:59.633Z,18.57
2018-02-14T22:11:27.083Z,20.63
2018-02-14T22:13:54.540Z,19.63
2018-02-14T22:16:22.021Z,19.37
2018-02-14T22:18:49.480Z,19.07
2018-02-14T22:21:16.946Z,20.27
2018-02-14T22:23:44.392Z,20.10
2018-02-14T22:26:11.865Z,20.60
2018-02-14T22:28:39.316Z,19.60
2018-02-14T22:31:06.781Z,19.10
2018-02-14T22:33:34.250Z,18.70
2018-02-14T22:36:01.704Z,19.00
2018-02-14T22:38:29.153Z,19.40
2018-02-14T22:40:56.629Z,20.37
2018-02-14T22:43:24.082Z,21.10
2018-02-14T22:45:51.537Z,20.27
2018-02-14T22:48:19.004Z,19.87
2018-02-14T22:50:46.460Z,18.80
2018-02-14T22:53:14.685Z,18.07
2018-02-14T22:55:42.146Z,19.03
2018-02-14T22:58:09.606Z,19.13
2018-02-14T23:00:37.061Z,18.23
2018-02-14T23:03:04.528Z,18.57
2018-02-14T23:05:31.980Z,18.87
2018-02-14T23:08:00.199Z,18.33
2018-02-14T23:10:27.653Z,18.10
2018-02-14T23:12:55.149Z,17.93
2018-02-14T23:15:22.598Z,16.93
2018-02-14T23:17:50.065Z,16.83
2018-02-14T23:20:17.520Z,17.57
2018-02-14T23:22:44.981Z,16.97
2018-02-14T23:25:13.312Z,16.27
2018-02-14T23:27:41.537Z,16.27
2018-02-14T23:30:12.830Z,15.13
2018-02-14T23:32:41.065Z,15.13
2018-02-14T23:35:08.508Z,15.57
2018-02-14T23:37:35.968Z,15.33
2018-02-14T23:40:03.439Z,16.50
2018-02-14T23:42:30.876Z,16.70
2018-02-14T23:44:58.327Z,16.33
2018-02-14T23:47:26.565Z,16.13
2018-02-14T23:49:54.022Z,16.87
2018-02-14T23:52:21.486Z,16.93
2018-02-14T23:54:48.949Z,16.07
2018-02-14T23:57:16.396Z,17.07
2018-02-14T23:59:43.852Z,16.73
